sensor_id;sensor_type;location;lat;lon;timestamp;P1;durP1;ratioP1;P2;durP2;ratioP2
71196;SDS011;58918;51.652;4.864;2022-08-19T00:01:22;8.20;;;4.30;;
71196;SDS011;58918;51.652;4.864;2022-08-19T00:03:56;7.72;;;3.60;;
71196;SDS011;58918;51.652;4.864;2022-08-19T00:06:23;7.35;;;3.85;;
71196;SDS011;58918;51.652;4.864;2022-08-19T00:08:50;7.65;;;3.92;;
71196;SDS011;58918;51.652;4.864;2022-08-19T00:11:18;7.65;;;3.50;;
71196;SDS011;58918;51.652;4.864;2022-08-19T00:13:51;6.22;;;3.60;;
71196;SDS011;58918;51.652;4.864;2022-08-19T00:16:18;7.18;;;3.90;;
71196;SDS011;58918;51.652;4.864;2022-08-19T00:18:51;8.35;;;4.75;;
71196;SDS011;58918;51.652;4.864;2022-08-19T00:21:19;7.70;;;4.20;;
71196;SDS011;58918;51.652;4.864;2022-08-19T00:23:46;7.40;;;4.10;;
71196;SDS011;58918;51.652;4.864;2022-08-19T00:26:13;8.57;;;4.03;;
71196;SDS011;58918;51.652;4.864;2022-08-19T00:28:41;8.13;;;4.82;;
71196;SDS011;58918;51.652;4.864;2022-08-19T00:31:08;9.75;;;4.55;;
71196;SDS011;58918;51.652;4.864;2022-08-19T00:33:36;8.55;;;4.40;;
71196;SDS011;58918;51.652;4.864;2022-08-19T00:36:06;7.32;;;4.47;;
71196;SDS011;58918;51.652;4.864;2022-08-19T00:38:34;7.70;;;4.28;;
71196;SDS011;58918;51.652;4.864;2022-08-19T00:41:04;8.52;;;4.65;;
71196;SDS011;58918;51.652;4.864;2022-08-19T00:43:31;6.95;;;4.20;;
71196;SDS011;58918;51.652;4.864;2022-08-19T00:45:59;6.68;;;4.20;;
71196;SDS011;58918;51.652;4.864;2022-08-19T00:48:27;7.65;;;3.90;;
71196;SDS011;58918;51.652;4.864;2022-08-19T00:50:54;7.95;;;4.20;;
71196;SDS011;58918;51.652;4.864;2022-08-19T00:53:24;8.82;;;4.65;;
71196;SDS011;58918;51.652;4.864;2022-08-19T00:55:54;7.57;;;3.92;;
71196;SDS011;58918;51.652;4.864;2022-08-19T01:00:49;6.50;;;3.70;;
71196;SDS011;58918;51.652;4.864;2022-08-19T01:03:17;6.53;;;3.45;;
71196;SDS011;58918;51.652;4.864;2022-08-19T01:05:45;8.27;;;4.03;;
71196;SDS011;58918;51.652;4.864;2022-08-19T01:08:13;8.35;;;4.03;;
71196;SDS011;58918;51.652;4.864;2022-08-19T01:10:42;7.55;;;3.70;;
71196;SDS011;58918;51.652;4.864;2022-08-19T01:13:10;7.18;;;5.20;;
71196;SDS011;58918;51.652;4.864;2022-08-19T01:15:45;6.78;;;3.85;;
71196;SDS011;58918;51.652;4.864;2022-08-19T01:18:14;8.40;;;4.00;;
71196;SDS011;58918;51.652;4.864;2022-08-19T01:20:42;7.20;;;3.95;;
71196;SDS011;58918;51.652;4.864;2022-08-19T01:23:09;8.27;;;4.13;;
71196;SDS011;58918;51.652;4.864;2022-08-19T01:25:50;9.43;;;3.88;;
71196;SDS011;58918;51.652;4.864;2022-08-19T01:28:21;6.85;;;3.60;;
71196;SDS011;58918;51.652;4.864;2022-08-19T01:31:05;6.25;;;3.20;;
71196;SDS011;58918;51.652;4.864;2022-08-19T01:33:33;6.10;;;3.42;;
71196;SDS011;58918;51.652;4.864;2022-08-19T01:36:04;6.60;;;3.30;;
71196;SDS011;58918;51.652;4.864;2022-08-19T01:38:35;6.40;;;3.50;;
71196;SDS011;58918;51.652;4.864;2022-08-19T01:41:10;6.28;;;3.58;;
71196;SDS011;58918;51.652;4.864;2022-08-19T01:43:38;5.45;;;3.13;;
71196;SDS011;58918;51.652;4.864;2022-08-19T01:46:25;7.15;;;3.13;;
71196;SDS011;58918;51.652;4.864;2022-08-19T01:48:52;7.95;;;3.67;;
71196;SDS011;58918;51.652;4.864;2022-08-19T01:51:19;6.85;;;3.92;;
71196;SDS011;58918;51.652;4.864;2022-08-19T01:53:47;7.78;;;4.25;;
71196;SDS011;58918;51.652;4.864;2022-08-19T01:56:15;8.25;;;4.03;;
71196;SDS011;58918;51.652;4.864;2022-08-19T01:59:05;9.82;;;3.95;;
71196;SDS011;58918;51.652;4.864;2022-08-19T02:01:30;5.90;;;3.30;;
71196;SDS011;58918;51.652;4.864;2022-08-19T02:03:58;7.22;;;3.40;;
71196;SDS011;58918;51.652;4.864;2022-08-19T02:06:27;6.13;;;3.22;;
71196;SDS011;58918;51.652;4.864;2022-08-19T02:08:54;6.75;;;2.95;;
71196;SDS011;58918;51.652;4.864;2022-08-19T02:11:24;6.45;;;2.92;;
71196;SDS011;58918;51.652;4.864;2022-08-19T02:13:53;5.60;;;3.08;;
71196;SDS011;58918;51.652;4.864;2022-08-19T02:16:21;8.52;;;3.97;;
71196;SDS011;58918;51.652;4.864;2022-08-19T02:18:48;8.15;;;4.35;;
71196;SDS011;58918;51.652;4.864;2022-08-19T02:21:16;8.55;;;4.75;;
71196;SDS011;58918;51.652;4.864;2022-08-19T02:23:44;8.73;;;3.90;;
71196;SDS011;58918;51.652;4.864;2022-08-19T02:26:11;8.02;;;4.45;;
71196;SDS011;58918;51.652;4.864;2022-08-19T02:28:40;8.70;;;4.38;;
71196;SDS011;58918;51.652;4.864;2022-08-19T02:31:17;7.43;;;4.00;;
71196;SDS011;58918;51.652;4.864;2022-08-19T02:33:46;8.63;;;5.38;;
71196;SDS011;58918;51.652;4.864;2022-08-19T02:36:14;8.98;;;4.45;;
71196;SDS011;58918;51.652;4.864;2022-08-19T02:38:45;10.10;;;5.60;;
71196;SDS011;58918;51.652;4.864;2022-08-19T02:41:24;8.88;;;5.15;;
71196;SDS011;58918;51.652;4.864;2022-08-19T02:43:53;9.10;;;5.22;;
71196;SDS011;58918;51.652;4.864;2022-08-19T02:46:41;8.50;;;4.82;;
71196;SDS011;58918;51.652;4.864;2022-08-19T02:49:09;10.95;;;5.88;;
71196;SDS011;58918;51.652;4.864;2022-08-19T02:51:38;9.05;;;5.18;;
71196;SDS011;58918;51.652;4.864;2022-08-19T02:54:06;11.32;;;6.05;;
71196;SDS011;58918;51.652;4.864;2022-08-19T02:56:35;13.02;;;7.03;;
71196;SDS011;58918;51.652;4.864;2022-08-19T02:59:02;10.55;;;6.45;;
71196;SDS011;58918;51.652;4.864;2022-08-19T03:01:36;12.60;;;7.25;;
71196;SDS011;58918;51.652;4.864;2022-08-19T03:04:04;12.48;;;7.35;;
71196;SDS011;58918;51.652;4.864;2022-08-19T03:06:35;13.27;;;7.75;;
71196;SDS011;58918;51.652;4.864;2022-08-19T03:09:02;10.73;;;5.95;;
71196;SDS011;58918;51.652;4.864;2022-08-19T03:11:30;10.93;;;6.20;;
71196;SDS011;58918;51.652;4.864;2022-08-19T03:13:58;13.25;;;6.88;;
71196;SDS011;58918;51.652;4.864;2022-08-19T03:16:27;11.38;;;6.47;;
71196;SDS011;58918;51.652;4.864;2022-08-19T03:18:59;12.40;;;6.90;;
71196;SDS011;58918;51.652;4.864;2022-08-19T03:21:28;11.95;;;7.38;;
71196;SDS011;58918;51.652;4.864;2022-08-19T03:23:57;10.57;;;6.60;;
71196;SDS011;58918;51.652;4.864;2022-08-19T03:26:24;13.13;;;7.03;;
71196;SDS011;58918;51.652;4.864;2022-08-19T03:28:52;12.13;;;6.55;;
71196;SDS011;58918;51.652;4.864;2022-08-19T03:31:24;12.32;;;6.40;;
71196;SDS011;58918;51.652;4.864;2022-08-19T03:34:11;12.98;;;6.78;;
71196;SDS011;58918;51.652;4.864;2022-08-19T03:36:38;11.57;;;6.60;;
71196;SDS011;58918;51.652;4.864;2022-08-19T03:39:06;13.23;;;7.00;;
71196;SDS011;58918;51.652;4.864;2022-08-19T03:41:38;12.80;;;7.35;;
71196;SDS011;58918;51.652;4.864;2022-08-19T03:44:15;13.02;;;7.40;;
71196;SDS011;58918;51.652;4.864;2022-08-19T03:46:45;12.65;;;7.25;;
71196;SDS011;58918;51.652;4.864;2022-08-19T03:49:12;13.50;;;7.63;;
71196;SDS011;58918;51.652;4.864;2022-08-19T03:51:40;12.52;;;7.65;;
71196;SDS011;58918;51.652;4.864;2022-08-19T03:54:09;12.73;;;7.60;;
71196;SDS011;58918;51.652;4.864;2022-08-19T03:56:39;14.18;;;7.85;;
71196;SDS011;58918;51.652;4.864;2022-08-19T03:59:08;13.45;;;7.20;;
71196;SDS011;58918;51.652;4.864;2022-08-19T04:01:35;13.10;;;7.53;;
71196;SDS011;58918;51.652;4.864;2022-08-19T04:04:03;14.25;;;8.13;;
71196;SDS011;58918;51.652;4.864;2022-08-19T04:06:35;13.75;;;7.63;;
71196;SDS011;58918;51.652;4.864;2022-08-19T04:09:06;13.65;;;7.10;;
71196;SDS011;58918;51.652;4.864;2022-08-19T04:11:35;13.90;;;8.25;;
71196;SDS011;58918;51.652;4.864;2022-08-19T04:14:11;13.52;;;7.25;;
71196;SDS011;58918;51.652;4.864;2022-08-19T04:16:38;16.83;;;7.93;;
71196;SDS011;58918;51.652;4.864;2022-08-19T04:19:05;15.90;;;8.50;;
71196;SDS011;58918;51.652;4.864;2022-08-19T04:21:33;13.77;;;7.78;;
71196;SDS011;58918;51.652;4.864;2022-08-19T04:24:01;12.98;;;7.40;;
71196;SDS011;58918;51.652;4.864;2022-08-19T04:26:33;14.73;;;8.50;;
71196;SDS011;58918;51.652;4.864;2022-08-19T04:29:03;15.05;;;7.60;;
71196;SDS011;58918;51.652;4.864;2022-08-19T04:31:37;11.40;;;6.88;;
71196;SDS011;58918;51.652;4.864;2022-08-19T04:34:06;11.20;;;6.53;;
71196;SDS011;58918;51.652;4.864;2022-08-19T04:36:35;14.15;;;8.00;;
71196;SDS011;58918;51.652;4.864;2022-08-19T04:39:05;12.20;;;6.80;;
71196;SDS011;58918;51.652;4.864;2022-08-19T04:41:33;17.00;;;9.63;;
71196;SDS011;58918;51.652;4.864;2022-08-19T04:44:19;20.02;;;9.93;;
71196;SDS011;58918;51.652;4.864;2022-08-19T04:46:47;15.45;;;7.45;;
71196;SDS011;58918;51.652;4.864;2022-08-19T04:49:17;16.73;;;8.00;;
71196;SDS011;58918;51.652;4.864;2022-08-19T04:51:46;14.93;;;8.52;;
71196;SDS011;58918;51.652;4.864;2022-08-19T04:54:16;16.20;;;8.10;;
71196;SDS011;58918;51.652;4.864;2022-08-19T04:57:04;19.00;;;10.20;;
71196;SDS011;58918;51.652;4.864;2022-08-19T04:59:33;14.23;;;7.70;;
71196;SDS011;58918;51.652;4.864;2022-08-19T05:02:00;18.83;;;9.38;;
71196;SDS011;58918;51.652;4.864;2022-08-19T05:04:27;16.17;;;8.73;;
71196;SDS011;58918;51.652;4.864;2022-08-19T05:06:57;17.23;;;10.00;;
71196;SDS011;58918;51.652;4.864;2022-08-19T05:09:26;15.07;;;8.85;;
71196;SDS011;58918;51.652;4.864;2022-08-19T05:12:14;18.08;;;9.38;;
71196;SDS011;58918;51.652;4.864;2022-08-19T05:14:41;16.92;;;9.23;;
71196;SDS011;58918;51.652;4.864;2022-08-19T05:17:09;16.52;;;9.57;;
71196;SDS011;58918;51.652;4.864;2022-08-19T05:19:52;15.15;;;8.60;;
71196;SDS011;58918;51.652;4.864;2022-08-19T05:22:38;15.27;;;8.82;;
71196;SDS011;58918;51.652;4.864;2022-08-19T05:25:07;15.75;;;8.43;;
71196;SDS011;58918;51.652;4.864;2022-08-19T05:27:39;14.80;;;7.80;;
71196;SDS011;58918;51.652;4.864;2022-08-19T05:30:06;12.02;;;6.35;;
71196;SDS011;58918;51.652;4.864;2022-08-19T05:32:33;14.27;;;7.88;;
71196;SDS011;58918;51.652;4.864;2022-08-19T05:35:01;16.15;;;8.65;;
71196;SDS011;58918;51.652;4.864;2022-08-19T05:37:29;14.25;;;7.97;;
71196;SDS011;58918;51.652;4.864;2022-08-19T05:39:56;18.88;;;8.52;;
71196;SDS011;58918;51.652;4.864;2022-08-19T05:42:25;14.85;;;8.23;;
71196;SDS011;58918;51.652;4.864;2022-08-19T05:44:52;25.55;;;10.00;;
71196;SDS011;58918;51.652;4.864;2022-08-19T05:47:20;29.55;;;10.43;;
71196;SDS011;58918;51.652;4.864;2022-08-19T05:49:58;23.73;;;8.05;;
71196;SDS011;58918;51.652;4.864;2022-08-19T05:52:30;14.68;;;7.50;;
71196;SDS011;58918;51.652;4.864;2022-08-19T05:54:58;15.90;;;7.68;;
71196;SDS011;58918;51.652;4.864;2022-08-19T05:57:25;16.27;;;7.43;;
71196;SDS011;58918;51.652;4.864;2022-08-19T05:59:54;18.08;;;8.15;;
71196;SDS011;58918;51.652;4.864;2022-08-19T06:02:26;17.02;;;8.30;;
71196;SDS011;58918;51.652;4.864;2022-08-19T06:04:54;19.63;;;8.75;;
71196;SDS011;58918;51.652;4.864;2022-08-19T06:07:21;16.35;;;7.75;;
71196;SDS011;58918;51.652;4.864;2022-08-19T06:09:48;15.32;;;7.40;;
71196;SDS011;58918;51.652;4.864;2022-08-19T06:12:26;16.50;;;7.85;;
71196;SDS011;58918;51.652;4.864;2022-08-19T06:15:01;18.30;;;7.90;;
71196;SDS011;58918;51.652;4.864;2022-08-19T06:17:29;15.20;;;7.32;;
71196;SDS011;58918;51.652;4.864;2022-08-19T06:19:57;15.55;;;6.63;;
71196;SDS011;58918;51.652;4.864;2022-08-19T06:22:25;16.63;;;7.57;;
71196;SDS011;58918;51.652;4.864;2022-08-19T06:24:53;13.23;;;6.18;;
71196;SDS011;58918;51.652;4.864;2022-08-19T06:27:21;15.18;;;6.57;;
71196;SDS011;58918;51.652;4.864;2022-08-19T06:29:48;16.98;;;7.05;;
71196;SDS011;58918;51.652;4.864;2022-08-19T06:32:16;16.08;;;7.20;;
71196;SDS011;58918;51.652;4.864;2022-08-19T06:34:45;17.60;;;6.70;;
71196;SDS011;58918;51.652;4.864;2022-08-19T06:37:13;17.08;;;7.70;;
71196;SDS011;58918;51.652;4.864;2022-08-19T06:39:41;17.52;;;7.32;;
71196;SDS011;58918;51.652;4.864;2022-08-19T06:42:08;19.25;;;8.07;;
71196;SDS011;58918;51.652;4.864;2022-08-19T06:44:38;16.23;;;7.50;;
71196;SDS011;58918;51.652;4.864;2022-08-19T06:47:09;17.27;;;7.55;;
71196;SDS011;58918;51.652;4.864;2022-08-19T06:49:40;16.83;;;6.75;;
71196;SDS011;58918;51.652;4.864;2022-08-19T06:52:08;15.10;;;7.00;;
71196;SDS011;58918;51.652;4.864;2022-08-19T06:54:39;13.32;;;6.68;;
71196;SDS011;58918;51.652;4.864;2022-08-19T06:57:22;16.42;;;7.32;;
71196;SDS011;58918;51.652;4.864;2022-08-19T06:59:49;18.08;;;7.15;;
71196;SDS011;58918;51.652;4.864;2022-08-19T07:02:17;15.43;;;6.65;;
71196;SDS011;58918;51.652;4.864;2022-08-19T07:04:44;17.88;;;6.55;;
71196;SDS011;58918;51.652;4.864;2022-08-19T07:07:13;17.23;;;7.18;;
71196;SDS011;58918;51.652;4.864;2022-08-19T07:09:46;14.73;;;6.95;;
71196;SDS011;58918;51.652;4.864;2022-08-19T07:12:25;15.93;;;6.95;;
71196;SDS011;58918;51.652;4.864;2022-08-19T07:14:56;13.57;;;6.57;;
71196;SDS011;58918;51.652;4.864;2022-08-19T07:17:24;13.05;;;6.70;;
71196;SDS011;58918;51.652;4.864;2022-08-19T07:19:53;19.67;;;6.53;;
71196;SDS011;58918;51.652;4.864;2022-08-19T07:22:31;17.80;;;8.10;;
71196;SDS011;58918;51.652;4.864;2022-08-19T07:24:59;16.60;;;7.07;;
71196;SDS011;58918;51.652;4.864;2022-08-19T07:27:29;15.73;;;7.20;;
71196;SDS011;58918;51.652;4.864;2022-08-19T07:29:59;13.00;;;6.45;;
71196;SDS011;58918;51.652;4.864;2022-08-19T07:32:26;12.63;;;7.00;;
71196;SDS011;58918;51.652;4.864;2022-08-19T07:34:53;14.45;;;6.72;;
71196;SDS011;58918;51.652;4.864;2022-08-19T07:37:22;13.27;;;6.60;;
71196;SDS011;58918;51.652;4.864;2022-08-19T07:39:58;16.42;;;7.57;;
71196;SDS011;58918;51.652;4.864;2022-08-19T07:42:26;13.50;;;6.93;;
71196;SDS011;58918;51.652;4.864;2022-08-19T07:44:56;12.95;;;6.32;;
71196;SDS011;58918;51.652;4.864;2022-08-19T07:47:24;16.67;;;6.68;;
71196;SDS011;58918;51.652;4.864;2022-08-19T07:50:13;19.55;;;9.02;;
71196;SDS011;58918;51.652;4.864;2022-08-19T07:52:41;12.70;;;6.15;;
71196;SDS011;58918;51.652;4.864;2022-08-19T07:55:14;15.68;;;7.10;;
71196;SDS011;58918;51.652;4.864;2022-08-19T07:58:04;14.40;;;7.30;;
71196;SDS011;58918;51.652;4.864;2022-08-19T08:00:31;13.75;;;7.53;;
71196;SDS011;58918;51.652;4.864;2022-08-19T08:03:01;15.20;;;6.95;;
71196;SDS011;58918;51.652;4.864;2022-08-19T08:05:28;16.60;;;7.00;;
71196;SDS011;58918;51.652;4.864;2022-08-19T08:08:14;14.43;;;6.28;;
71196;SDS011;58918;51.652;4.864;2022-08-19T08:11:12;11.40;;;5.97;;
71196;SDS011;58918;51.652;4.864;2022-08-19T08:13:40;14.60;;;6.25;;
71196;SDS011;58918;51.652;4.864;2022-08-19T08:16:08;15.85;;;6.90;;
71196;SDS011;58918;51.652;4.864;2022-08-19T08:18:39;10.52;;;5.57;;
71196;SDS011;58918;51.652;4.864;2022-08-19T08:21:08;14.98;;;6.68;;
71196;SDS011;58918;51.652;4.864;2022-08-19T08:23:35;9.38;;;5.00;;
71196;SDS011;58918;51.652;4.864;2022-08-19T08:26:05;16.15;;;7.03;;
71196;SDS011;58918;51.652;4.864;2022-08-19T08:28:32;15.38;;;6.88;;
71196;SDS011;58918;51.652;4.864;2022-08-19T08:30:59;15.10;;;7.45;;
71196;SDS011;58918;51.652;4.864;2022-08-19T08:33:27;11.85;;;6.10;;
71196;SDS011;58918;51.652;4.864;2022-08-19T08:36:01;14.38;;;7.25;;
71196;SDS011;58918;51.652;4.864;2022-08-19T08:38:29;11.68;;;5.43;;
71196;SDS011;58918;51.652;4.864;2022-08-19T08:41:17;13.68;;;5.95;;
71196;SDS011;58918;51.652;4.864;2022-08-19T08:43:49;21.98;;;6.70;;
71196;SDS011;58918;51.652;4.864;2022-08-19T08:46:23;19.58;;;6.72;;
71196;SDS011;58918;51.652;4.864;2022-08-19T08:49:01;18.02;;;6.30;;
71196;SDS011;58918;51.652;4.864;2022-08-19T08:51:37;9.60;;;4.53;;
71196;SDS011;58918;51.652;4.864;2022-08-19T08:54:07;12.43;;;5.72;;
71196;SDS011;58918;51.652;4.864;2022-08-19T08:59:04;15.25;;;6.85;;
71196;SDS011;58918;51.652;4.864;2022-08-19T09:01:40;15.73;;;6.38;;
71196;SDS011;58918;51.652;4.864;2022-08-19T09:04:08;14.32;;;6.47;;
71196;SDS011;58918;51.652;4.864;2022-08-19T09:09:14;16.20;;;5.97;;
71196;SDS011;58918;51.652;4.864;2022-08-19T09:12:06;15.18;;;6.88;;
71196;SDS011;58918;51.652;4.864;2022-08-19T09:17:23;10.52;;;5.13;;
71196;SDS011;58918;51.652;4.864;2022-08-19T09:20:15;13.02;;;5.55;;
71196;SDS011;58918;51.652;4.864;2022-08-19T09:22:44;13.98;;;6.97;;
71196;SDS011;58918;51.652;4.864;2022-08-19T09:25:18;12.73;;;6.10;;
71196;SDS011;58918;51.652;4.864;2022-08-19T09:27:54;14.90;;;6.32;;
71196;SDS011;58918;51.652;4.864;2022-08-19T09:30:29;13.80;;;5.90;;
71196;SDS011;58918;51.652;4.864;2022-08-19T09:33:03;14.82;;;6.70;;
71196;SDS011;58918;51.652;4.864;2022-08-19T09:35:36;13.75;;;6.43;;
71196;SDS011;58918;51.652;4.864;2022-08-19T09:38:18;14.68;;;5.68;;
71196;SDS011;58918;51.652;4.864;2022-08-19T09:40:46;14.18;;;5.80;;
71196;SDS011;58918;51.652;4.864;2022-08-19T09:43:16;13.95;;;5.85;;
71196;SDS011;58918;51.652;4.864;2022-08-19T09:46:05;13.27;;;6.22;;
71196;SDS011;58918;51.652;4.864;2022-08-19T09:48:36;12.25;;;6.68;;
71196;SDS011;58918;51.652;4.864;2022-08-19T09:51:09;12.63;;;6.45;;
71196;SDS011;58918;51.652;4.864;2022-08-19T09:53:37;14.50;;;5.50;;
71196;SDS011;58918;51.652;4.864;2022-08-19T09:56:05;11.82;;;5.43;;
71196;SDS011;58918;51.652;4.864;2022-08-19T09:58:34;13.52;;;5.13;;
71196;SDS011;58918;51.652;4.864;2022-08-19T10:01:02;13.27;;;4.72;;
71196;SDS011;58918;51.652;4.864;2022-08-19T10:05:58;10.60;;;5.30;;
71196;SDS011;58918;51.652;4.864;2022-08-19T10:08:27;10.63;;;4.68;;
71196;SDS011;58918;51.652;4.864;2022-08-19T10:10:55;11.38;;;4.28;;
71196;SDS011;58918;51.652;4.864;2022-08-19T10:13:25;9.18;;;4.43;;
71196;SDS011;58918;51.652;4.864;2022-08-19T10:15:55;10.40;;;5.55;;
71196;SDS011;58918;51.652;4.864;2022-08-19T10:18:27;10.80;;;6.00;;
71196;SDS011;58918;51.652;4.864;2022-08-19T10:21:02;12.43;;;6.13;;
71196;SDS011;58918;51.652;4.864;2022-08-19T10:23:31;12.18;;;6.18;;
71196;SDS011;58918;51.652;4.864;2022-08-19T10:26:00;10.13;;;5.07;;
71196;SDS011;58918;51.652;4.864;2022-08-19T10:28:29;9.38;;;4.18;;
71196;SDS011;58918;51.652;4.864;2022-08-19T10:30:56;9.07;;;4.00;;
71196;SDS011;58918;51.652;4.864;2022-08-19T10:33:23;9.68;;;5.05;;
71196;SDS011;58918;51.652;4.864;2022-08-19T10:36:08;10.05;;;4.55;;
71196;SDS011;58918;51.652;4.864;2022-08-19T10:38:36;12.68;;;5.47;;
71196;SDS011;58918;51.652;4.864;2022-08-19T10:41:13;13.32;;;6.13;;
71196;SDS011;58918;51.652;4.864;2022-08-19T10:43:41;11.63;;;6.18;;
71196;SDS011;58918;51.652;4.864;2022-08-19T10:46:09;14.35;;;7.43;;
71196;SDS011;58918;51.652;4.864;2022-08-19T10:48:42;9.68;;;6.28;;
71196;SDS011;58918;51.652;4.864;2022-08-19T10:51:11;12.63;;;5.20;;
71196;SDS011;58918;51.652;4.864;2022-08-19T10:53:57;11.57;;;5.43;;
71196;SDS011;58918;51.652;4.864;2022-08-19T10:56:26;11.57;;;5.00;;
71196;SDS011;58918;51.652;4.864;2022-08-19T11:01:40;8.50;;;4.85;;
71196;SDS011;58918;51.652;4.864;2022-08-19T11:06:37;9.25;;;4.90;;
71196;SDS011;58918;51.652;4.864;2022-08-19T11:09:04;9.43;;;4.40;;
71196;SDS011;58918;51.652;4.864;2022-08-19T11:11:32;9.48;;;4.72;;
71196;SDS011;58918;51.652;4.864;2022-08-19T11:14:04;8.77;;;4.97;;
71196;SDS011;58918;51.652;4.864;2022-08-19T11:16:32;6.75;;;3.95;;
71196;SDS011;58918;51.652;4.864;2022-08-19T11:18:59;9.27;;;4.20;;
71196;SDS011;58918;51.652;4.864;2022-08-19T11:21:28;9.15;;;4.80;;
71196;SDS011;58918;51.652;4.864;2022-08-19T11:23:58;8.85;;;4.07;;
71196;SDS011;58918;51.652;4.864;2022-08-19T11:26:27;12.80;;;5.68;;
71196;SDS011;58918;51.652;4.864;2022-08-19T11:28:55;7.70;;;4.53;;
71196;SDS011;58918;51.652;4.864;2022-08-19T11:31:26;9.55;;;4.82;;
71196;SDS011;58918;51.652;4.864;2022-08-19T11:33:58;9.50;;;5.22;;
71196;SDS011;58918;51.652;4.864;2022-08-19T11:36:26;11.40;;;5.22;;
71196;SDS011;58918;51.652;4.864;2022-08-19T11:38:53;7.65;;;4.30;;
71196;SDS011;58918;51.652;4.864;2022-08-19T11:41:22;8.75;;;5.13;;
71196;SDS011;58918;51.652;4.864;2022-08-19T11:43:52;6.72;;;3.63;;
71196;SDS011;58918;51.652;4.864;2022-08-19T11:46:21;7.97;;;3.97;;
71196;SDS011;58918;51.652;4.864;2022-08-19T11:48:48;9.10;;;4.18;;
71196;SDS011;58918;51.652;4.864;2022-08-19T11:51:18;8.73;;;4.28;;
71196;SDS011;58918;51.652;4.864;2022-08-19T11:53:45;8.35;;;3.97;;
71196;SDS011;58918;51.652;4.864;2022-08-19T11:56:13;7.53;;;3.75;;
71196;SDS011;58918;51.652;4.864;2022-08-19T11:58:40;10.40;;;4.47;;
71196;SDS011;58918;51.652;4.864;2022-08-19T12:01:11;11.65;;;5.38;;
71196;SDS011;58918;51.652;4.864;2022-08-19T12:03:39;9.90;;;4.93;;
71196;SDS011;58918;51.652;4.864;2022-08-19T12:06:13;10.98;;;5.80;;
71196;SDS011;58918;51.652;4.864;2022-08-19T12:08:41;9.13;;;4.47;;
71196;SDS011;58918;51.652;4.864;2022-08-19T12:11:09;11.13;;;5.72;;
71196;SDS011;58918;51.652;4.864;2022-08-19T12:18:32;10.95;;;6.70;;
71196;SDS011;58918;51.652;4.864;2022-08-19T12:20:59;11.75;;;6.03;;
71196;SDS011;58918;51.652;4.864;2022-08-19T12:23:27;12.93;;;6.10;;
71196;SDS011;58918;51.652;4.864;2022-08-19T12:25:54;11.55;;;6.43;;
71196;SDS011;58918;51.652;4.864;2022-08-19T12:28:25;11.38;;;6.50;;
71196;SDS011;58918;51.652;4.864;2022-08-19T12:30:53;9.27;;;5.78;;
71196;SDS011;58918;51.652;4.864;2022-08-19T12:33:26;10.98;;;5.80;;
71196;SDS011;58918;51.652;4.864;2022-08-19T12:35:54;13.90;;;7.65;;
71196;SDS011;58918;51.652;4.864;2022-08-19T12:38:22;11.38;;;6.22;;
71196;SDS011;58918;51.652;4.864;2022-08-19T12:40:51;11.25;;;7.00;;
71196;SDS011;58918;51.652;4.864;2022-08-19T12:43:24;13.70;;;7.57;;
71196;SDS011;58918;51.652;4.864;2022-08-19T12:45:52;11.98;;;6.13;;
71196;SDS011;58918;51.652;4.864;2022-08-19T12:48:20;9.38;;;5.43;;
71196;SDS011;58918;51.652;4.864;2022-08-19T12:51:00;11.20;;;5.55;;
71196;SDS011;58918;51.652;4.864;2022-08-19T12:53:28;10.63;;;5.05;;
71196;SDS011;58918;51.652;4.864;2022-08-19T12:55:55;9.07;;;4.60;;
71196;SDS011;58918;51.652;4.864;2022-08-19T12:58:23;9.10;;;5.38;;
71196;SDS011;58918;51.652;4.864;2022-08-19T13:00:52;10.75;;;5.63;;
71196;SDS011;58918;51.652;4.864;2022-08-19T13:03:20;9.13;;;5.18;;
71196;SDS011;58918;51.652;4.864;2022-08-19T13:05:50;11.18;;;5.15;;
71196;SDS011;58918;51.652;4.864;2022-08-19T13:10:44;10.77;;;4.95;;
71196;SDS011;58918;51.652;4.864;2022-08-19T13:13:12;9.70;;;5.32;;
71196;SDS011;58918;51.652;4.864;2022-08-19T13:15:40;10.35;;;5.55;;
71196;SDS011;58918;51.652;4.864;2022-08-19T13:18:10;9.75;;;5.25;;
71196;SDS011;58918;51.652;4.864;2022-08-19T13:20:38;10.55;;;5.20;;
71196;SDS011;58918;51.652;4.864;2022-08-19T13:23:17;11.13;;;5.30;;
71196;SDS011;58918;51.652;4.864;2022-08-19T13:25:44;9.32;;;5.35;;
71196;SDS011;58918;51.652;4.864;2022-08-19T13:28:13;9.65;;;4.88;;
71196;SDS011;58918;51.652;4.864;2022-08-19T13:30:46;8.63;;;4.72;;
71196;SDS011;58918;51.652;4.864;2022-08-19T13:33:32;8.07;;;4.60;;
71196;SDS011;58918;51.652;4.864;2022-08-19T13:35:59;9.63;;;4.72;;
71196;SDS011;58918;51.652;4.864;2022-08-19T13:38:27;9.73;;;4.70;;
71196;SDS011;58918;51.652;4.864;2022-08-19T13:40:56;7.60;;;4.00;;
71196;SDS011;58918;51.652;4.864;2022-08-19T13:43:37;7.82;;;4.30;;
71196;SDS011;58918;51.652;4.864;2022-08-19T13:46:08;6.82;;;3.83;;
71196;SDS011;58918;51.652;4.864;2022-08-19T13:48:35;9.50;;;4.65;;
71196;SDS011;58918;51.652;4.864;2022-08-19T13:51:04;8.60;;;4.93;;
71196;SDS011;58918;51.652;4.864;2022-08-19T13:53:31;8.95;;;4.97;;
71196;SDS011;58918;51.652;4.864;2022-08-19T13:55:59;9.20;;;4.85;;
71196;SDS011;58918;51.652;4.864;2022-08-19T13:58:26;9.50;;;4.32;;
71196;SDS011;58918;51.652;4.864;2022-08-19T14:00:53;10.40;;;5.30;;
71196;SDS011;58918;51.652;4.864;2022-08-19T14:03:22;9.32;;;5.38;;
71196;SDS011;58918;51.652;4.864;2022-08-19T14:05:51;10.30;;;5.85;;
71196;SDS011;58918;51.652;4.864;2022-08-19T14:08:18;8.82;;;5.05;;
71196;SDS011;58918;51.652;4.864;2022-08-19T14:10:46;12.55;;;6.18;;
71196;SDS011;58918;51.652;4.864;2022-08-19T14:13:15;11.02;;;5.90;;
71196;SDS011;58918;51.652;4.864;2022-08-19T14:15:43;11.57;;;5.93;;
71196;SDS011;58918;51.652;4.864;2022-08-19T14:18:11;13.88;;;7.60;;
71196;SDS011;58918;51.652;4.864;2022-08-19T14:20:38;9.90;;;5.75;;
71196;SDS011;58918;51.652;4.864;2022-08-19T14:23:05;11.80;;;6.28;;
71196;SDS011;58918;51.652;4.864;2022-08-19T14:25:33;11.25;;;5.43;;
71196;SDS011;58918;51.652;4.864;2022-08-19T14:28:00;10.27;;;5.97;;
71196;SDS011;58918;51.652;4.864;2022-08-19T14:30:28;11.98;;;5.80;;
71196;SDS011;58918;51.652;4.864;2022-08-19T14:35:24;10.50;;;5.80;;
71196;SDS011;58918;51.652;4.864;2022-08-19T14:37:53;11.70;;;5.75;;
71196;SDS011;58918;51.652;4.864;2022-08-19T14:40:22;10.10;;;5.07;;
71196;SDS011;58918;51.652;4.864;2022-08-19T14:42:53;9.95;;;4.97;;
71196;SDS011;58918;51.652;4.864;2022-08-19T14:45:31;9.38;;;4.55;;
71196;SDS011;58918;51.652;4.864;2022-08-19T14:47:58;9.82;;;4.32;;
71196;SDS011;58918;51.652;4.864;2022-08-19T14:50:26;8.65;;;4.47;;
71196;SDS011;58918;51.652;4.864;2022-08-19T14:52:58;9.00;;;3.85;;
71196;SDS011;58918;51.652;4.864;2022-08-19T14:55:26;7.40;;;3.65;;
71196;SDS011;58918;51.652;4.864;2022-08-19T14:57:53;6.65;;;3.92;;
71196;SDS011;58918;51.652;4.864;2022-08-19T15:00:22;6.68;;;3.40;;
71196;SDS011;58918;51.652;4.864;2022-08-19T15:02:50;6.30;;;3.42;;
71196;SDS011;58918;51.652;4.864;2022-08-19T15:05:17;8.10;;;3.33;;
71196;SDS011;58918;51.652;4.864;2022-08-19T15:07:44;7.13;;;3.10;;
71196;SDS011;58918;51.652;4.864;2022-08-19T15:10:12;7.93;;;3.38;;
71196;SDS011;58918;51.652;4.864;2022-08-19T15:12:39;7.55;;;3.80;;
71196;SDS011;58918;51.652;4.864;2022-08-19T15:15:07;6.72;;;3.40;;
71196;SDS011;58918;51.652;4.864;2022-08-19T15:17:39;7.72;;;4.03;;
71196;SDS011;58918;51.652;4.864;2022-08-19T15:20:12;9.07;;;3.75;;
71196;SDS011;58918;51.652;4.864;2022-08-19T15:22:40;6.68;;;3.47;;
71196;SDS011;58918;51.652;4.864;2022-08-19T15:25:09;7.47;;;4.00;;